createdAt,value
2023-04-16T00:00:42.382Z,9.52
2023-04-16T00:03:10.001Z,9.45
2023-04-16T00:05:37.571Z,9.22
2023-04-16T00:08:05.023Z,9.33
2023-04-16T00:10:32.523Z,9.39
2023-04-16T00:12:59.954Z,9.43
2023-04-16T00:15:28.755Z,9.42
2023-04-16T00:17:56.270Z,9.49
2023-04-16T00:20:23.785Z,9.51
2023-04-16T00:22:52.077Z,9.50
2023-04-16T00:25:19.500Z,9.53
2023-04-16T00:27:46.932Z,9.40
2023-04-16T00:30:14.882Z,9.49
2023-04-16T00:32:43.728Z,9.52
2023-04-16T00:35:11.227Z,9.57
2023-04-16T00:37:38.661Z,9.51
2023-04-16T00:40:07.403Z,9.46
2023-04-16T00:42:34.882Z,9.63
2023-04-16T00:45:02.341Z,9.62
2023-04-16T00:47:30.053Z,9.54
2023-04-16T00:49:58.861Z,9.51
2023-04-16T00:52:26.756Z,9.38
2023-04-16T00:54:54.913Z,9.39
2023-04-16T00:57:23.825Z,9.46
2023-04-16T00:59:51.521Z,9.37
2023-04-16T01:02:19.146Z,9.58
2023-04-16T01:04:46.739Z,9.51
2023-04-16T01:07:15.659Z,9.58
2023-04-16T01:09:43.124Z,9.57
2023-04-16T01:12:10.547Z,9.45
2023-04-16T01:14:38.016Z,9.61
2023-04-16T01:17:05.531Z,9.50
2023-04-16T01:19:36.092Z,9.59
2023-04-16T01:22:05.614Z,9.50
2023-04-16T01:24:33.087Z,9.39
2023-04-16T01:27:00.536Z,9.41
2023-04-16T01:29:28.346Z,9.39
2023-04-16T01:31:55.786Z,9.16
2023-04-16T01:34:23.215Z,9.24
2023-04-16T01:36:51.084Z,9.30
2023-04-16T01:39:19.978Z,9.44
2023-04-16T01:41:47.473Z,9.49
2023-04-16T01:44:14.993Z,9.35
2023-04-16T01:46:42.535Z,9.40
2023-04-16T01:49:10.375Z,9.35
2023-04-16T01:51:37.985Z,9.41
2023-04-16T01:54:05.670Z,9.23
2023-04-16T01:56:34.511Z,9.48
2023-04-16T01:59:01.984Z,9.49
2023-04-16T02:01:30.310Z,9.48
2023-04-16T02:03:58.299Z,9.61
2023-04-16T02:06:25.974Z,9.42
2023-04-16T02:08:53.458Z,9.61
2023-04-16T02:11:21.979Z,9.43
2023-04-16T02:13:50.859Z,9.33
2023-04-16T02:16:18.374Z,9.35
2023-04-16T02:18:45.930Z,9.47
2023-04-16T02:21:13.860Z,9.50
2023-04-16T02:23:41.660Z,9.47
2023-04-16T02:26:09.217Z,9.62
2023-04-16T02:28:36.705Z,9.41
2023-04-16T02:31:05.703Z,9.39
2023-04-16T02:33:33.175Z,9.52
2023-04-16T02:36:00.731Z,9.47
2023-04-16T02:38:28.237Z,9.52
2023-04-16T02:40:55.691Z,9.51
2023-04-16T02:43:23.089Z,9.52
2023-04-16T02:45:50.555Z,9.66
2023-04-16T02:48:19.343Z,9.58
2023-04-16T02:50:46.803Z,9.66
2023-04-16T02:53:14.244Z,9.63
2023-04-16T02:55:41.684Z,9.41
2023-04-16T02:58:09.117Z,9.61
2023-04-16T03:00:36.827Z,9.44
2023-04-16T03:03:04.505Z,9.44
2023-04-16T03:05:33.658Z,9.66
2023-04-16T03:08:01.129Z,9.43
2023-04-16T03:10:28.533Z,9.41
2023-04-16T03:12:55.967Z,9.48
2023-04-16T03:15:23.474Z,9.42
2023-04-16T03:17:51.094Z,9.42
2023-04-16T03:20:19.064Z,9.43
2023-04-16T03:22:48.295Z,9.26
2023-04-16T03:25:15.833Z,9.44
2023-04-16T03:27:43.270Z,9.34
2023-04-16T03:30:13.067Z,9.57
2023-04-16T03:32:40.925Z,9.50
2023-04-16T03:35:09.644Z,9.57
2023-04-16T03:37:37.172Z,9.63
2023-04-16T03:40:07.065Z,9.78
2023-04-16T03:42:34.571Z,9.65
2023-04-16T03:45:01.999Z,9.58
2023-04-16T03:47:29.516Z,9.70
2023-04-16T03:49:56.970Z,9.80
2023-04-16T03:52:24.446Z,9.63
2023-04-16T03:54:52.119Z,9.69
2023-04-16T03:57:20.918Z,9.72
2023-04-16T03:59:48.354Z,9.60
2023-04-16T04:02:16.006Z,9.65
2023-04-16T04:04:43.633Z,9.76
2023-04-16T04:07:11.149Z,9.82
2023-04-16T04:09:38.686Z,9.92
2023-04-16T04:12:06.172Z,9.81
2023-04-16T04:14:39.579Z,9.77
2023-04-16T04:17:07.127Z,9.76
2023-04-16T04:19:34.681Z,9.94
2023-04-16T04:22:02.178Z,9.76
2023-04-16T04:24:29.669Z,9.81
2023-04-16T04:26:57.290Z,9.92
2023-04-16T04:29:24.779Z,9.83
2023-04-16T04:31:55.117Z,9.76
2023-04-16T04:34:22.653Z,9.83
2023-04-16T04:36:50.150Z,9.88
2023-04-16T04:39:17.770Z,9.72
2023-04-16T04:41:45.257Z,9.83
2023-04-16T04:44:12.732Z,9.79
2023-04-16T04:46:40.606Z,9.87
2023-04-16T04:49:09.525Z,9.89
2023-04-16T04:51:37.198Z,9.81
2023-04-16T04:54:04.763Z,9.88
2023-04-16T04:56:32.193Z,9.84
2023-04-16T04:58:59.618Z,10.04
2023-04-16T05:01:27.090Z,9.84
2023-04-16T05:03:54.607Z,9.88
2023-04-16T05:06:23.463Z,9.96
2023-04-16T05:08:50.861Z,9.89
2023-04-16T05:11:18.302Z,10.12
2023-04-16T05:13:45.762Z,10.19
2023-04-16T05:16:13.255Z,9.86
2023-04-16T05:18:40.727Z,9.85
2023-04-16T05:21:08.160Z,9.82
2023-04-16T05:23:36.937Z,9.91
2023-04-16T05:26:04.431Z,10.03
2023-04-16T05:28:32.148Z,10.10
2023-04-16T05:30:59.623Z,10.12
2023-04-16T05:33:27.080Z,10.01
2023-04-16T05:35:54.518Z,10.02
2023-04-16T05:38:21.986Z,9.95
2023-04-16T05:40:50.805Z,10.04
2023-04-16T05:43:18.917Z,10.09
2023-04-16T05:45:46.481Z,10.13
2023-04-16T05:48:13.947Z,10.19
2023-04-16T05:50:41.377Z,10.14
2023-04-16T05:53:09.779Z,10.07
2023-04-16T05:55:37.577Z,10.11
2023-04-16T05:58:06.426Z,10.06
2023-04-16T06:00:34.412Z,10.12
2023-04-16T06:03:03.002Z,10.21
2023-04-16T06:05:30.797Z,10.12
2023-04-16T06:07:58.262Z,10.13
2023-04-16T06:10:25.767Z,10.00
2023-04-16T06:12:53.273Z,9.93
2023-04-16T06:15:22.097Z,9.86
2023-04-16T06:17:50.311Z,9.92
2023-04-16T06:20:17.948Z,9.80
2023-04-16T06:22:45.386Z,10.06
2023-04-16T06:25:12.860Z,9.77
2023-04-16T06:27:40.280Z,9.58
2023-04-16T06:30:13.280Z,9.81
2023-04-16T06:32:43.015Z,9.94
2023-04-16T06:35:10.837Z,9.79
2023-04-16T06:37:38.294Z,9.96
2023-04-16T06:40:06.698Z,10.09
2023-04-16T06:42:34.210Z,10.09
2023-04-16T06:45:02.127Z,10.24
2023-04-16T06:47:29.712Z,10.15
2023-04-16T06:49:58.578Z,10.09
2023-04-16T06:52:26.161Z,9.82
2023-04-16T06:54:53.591Z,10.03
2023-04-16T06:57:21.032Z,10.28
2023-04-16T06:59:48.502Z,10.43
2023-04-16T07:02:16.139Z,10.29
2023-04-16T07:04:43.635Z,10.20
2023-04-16T07:07:12.441Z,10.23
2023-04-16T07:09:39.938Z,10.16
2023-04-16T07:12:08.060Z,10.31
2023-04-16T07:14:35.615Z,10.45
2023-04-16T07:17:03.295Z,10.54
2023-04-16T07:19:32.524Z,10.33
2023-04-16T07:21:59.977Z,10.50
2023-04-16T07:24:28.762Z,10.60
2023-04-16T07:26:56.232Z,10.63
2023-04-16T07:29:23.778Z,10.71
2023-04-16T07:31:51.349Z,10.82
2023-04-16T07:34:18.946Z,10.76
2023-04-16T07:36:46.395Z,10.65
2023-04-16T07:39:13.858Z,10.60
2023-04-16T07:41:42.920Z,10.42
2023-04-16T07:44:10.562Z,10.25
2023-04-16T07:46:46.224Z,10.45
2023-04-16T07:49:15.372Z,10.55
2023-04-16T07:51:43.015Z,10.69
2023-04-16T07:54:11.487Z,10.52
2023-04-16T07:56:39.093Z,10.41
2023-04-16T07:59:19.069Z,10.51
2023-04-16T08:01:50.894Z,10.67
2023-04-16T08:04:24.274Z,10.76
2023-04-16T08:06:52.521Z,10.81
2023-04-16T08:09:20.457Z,10.66
2023-04-16T08:11:49.092Z,10.64
2023-04-16T08:14:18.182Z,10.83
2023-04-16T08:16:45.784Z,10.84
2023-04-16T08:19:13.492Z,10.73
2023-04-16T08:21:41.303Z,10.82
2023-04-16T08:24:08.967Z,10.66
2023-04-16T08:26:36.561Z,10.92
2023-04-16T08:29:04.056Z,10.87
2023-04-16T08:31:33.112Z,10.93
2023-04-16T08:34:01.277Z,10.81
2023-04-16T08:36:28.749Z,10.99
2023-04-16T08:38:56.244Z,11.07
2023-04-16T08:41:25.847Z,11.27
2023-04-16T08:43:56.274Z,11.08
2023-04-16T08:46:26.518Z,10.71
2023-04-16T08:48:56.661Z,10.92
2023-04-16T08:51:24.919Z,10.80
2023-04-16T08:53:54.118Z,10.69
2023-04-16T08:56:23.972Z,10.86
2023-04-16T08:58:52.590Z,10.99
2023-04-16T09:01:20.815Z,11.01
2023-04-16T09:03:49.759Z,11.19
2023-04-16T09:06:18.781Z,11.27
2023-04-16T09:08:46.584Z,11.26
2023-04-16T09:11:15.229Z,11.42
2023-04-16T09:13:42.738Z,11.48
2023-04-16T09:16:11.855Z,11.49
2023-04-16T09:18:39.404Z,11.45
2023-04-16T09:21:07.702Z,11.26
2023-04-16T09:23:38.569Z,11.18
2023-04-16T09:26:06.632Z,11.35
2023-04-16T09:28:40.907Z,11.14
2023-04-16T09:31:09.993Z,11.40
2023-04-16T09:33:37.493Z,11.45
2023-04-16T09:36:06.524Z,11.70
2023-04-16T09:38:52.309Z,11.82
2023-04-16T09:41:20.536Z,11.70
2023-04-16T09:43:56.400Z,11.68
2023-04-16T09:46:24.607Z,11.18
2023-04-16T09:48:52.146Z,11.42
2023-04-16T09:51:19.643Z,11.46
2023-04-16T09:53:47.147Z,11.35
2023-04-16T09:56:15.960Z,11.58
2023-04-16T09:58:43.419Z,11.50
2023-04-16T10:01:12.859Z,11.51
2023-04-16T10:03:41.883Z,11.46
2023-04-16T10:06:15.611Z,11.78
2023-04-16T10:08:44.679Z,11.74
2023-04-16T10:11:12.204Z,11.78
2023-04-16T10:13:41.128Z,11.88
2023-04-16T10:16:09.408Z,11.76
2023-04-16T10:18:38.090Z,11.82
2023-04-16T10:21:06.510Z,11.48
2023-04-16T10:23:34.440Z,11.57
2023-04-16T10:26:02.807Z,11.92
2023-04-16T10:28:31.211Z,12.12
2023-04-16T10:31:01.020Z,12.21
2023-04-16T10:33:31.167Z,12.36
2023-04-16T10:36:10.319Z,12.50
2023-04-16T10:38:40.935Z,12.74
2023-04-16T10:41:09.592Z,12.78
2023-04-16T10:43:41.915Z,13.02
2023-04-16T10:46:21.668Z,12.99
2023-04-16T10:48:51.030Z,12.74
2023-04-16T10:51:27.770Z,13.32
2023-04-16T10:53:56.064Z,13.16
2023-04-16T10:56:24.605Z,13.00
2023-04-16T10:58:54.251Z,13.00
2023-04-16T11:01:31.435Z,13.01
2023-04-16T11:04:01.880Z,13.04
2023-04-16T11:06:31.900Z,12.88
2023-04-16T11:08:59.389Z,13.02
2023-04-16T11:11:28.311Z,13.75
2023-04-16T11:13:59.011Z,13.85
2023-04-16T11:16:28.137Z,13.75
2023-04-16T11:18:57.085Z,13.86
2023-04-16T11:21:25.328Z,13.70
2023-04-16T11:23:54.180Z,13.75
2023-04-16T11:26:24.801Z,13.76
2023-04-16T11:28:52.534Z,14.03
2023-04-16T11:31:20.067Z,14.29
2023-04-16T11:33:48.914Z,14.21
2023-04-16T11:36:16.509Z,14.34
2023-04-16T11:38:43.960Z,14.35
2023-04-16T11:41:11.919Z,14.30
2023-04-16T11:43:39.385Z,14.52
2023-04-16T11:46:16.211Z,14.53
2023-04-16T11:48:50.250Z,14.42
2023-04-16T11:51:18.071Z,14.19
2023-04-16T11:53:53.407Z,14.46
2023-04-16T11:56:28.421Z,14.19
2023-04-16T11:59:10.000Z,14.03
2023-04-16T12:01:39.141Z,13.86
2023-04-16T12:04:09.200Z,13.79
2023-04-16T12:06:37.151Z,13.83
2023-04-16T12:09:25.886Z,13.92
2023-04-16T12:11:53.987Z,13.93
2023-04-16T12:14:21.783Z,13.70
2023-04-16T12:16:49.507Z,13.78
2023-04-16T12:19:18.827Z,13.74
2023-04-16T12:21:48.292Z,13.83
2023-04-16T12:24:20.522Z,13.75
2023-04-16T12:26:52.779Z,13.66
2023-04-16T12:29:21.980Z,13.80
2023-04-16T12:31:50.392Z,13.57
2023-04-16T12:34:20.855Z,13.64
2023-04-16T12:36:50.151Z,13.84
2023-04-16T12:39:17.624Z,14.07
2023-04-16T12:41:45.748Z,14.27
2023-04-16T12:44:17.808Z,14.18
2023-04-16T12:46:46.236Z,14.06
2023-04-16T12:49:13.976Z,14.11
2023-04-16T12:51:42.820Z,14.16
2023-04-16T12:54:10.484Z,14.17
2023-04-16T12:56:38.292Z,14.28
2023-04-16T12:59:05.768Z,14.44
2023-04-16T13:01:36.006Z,14.54
2023-04-16T13:04:03.798Z,14.81
2023-04-16T13:06:32.537Z,15.02
2023-04-16T13:09:01.393Z,14.81
2023-04-16T13:11:28.924Z,14.95
2023-04-16T13:13:56.400Z,14.95
2023-04-16T13:16:23.906Z,15.10
2023-04-16T13:18:51.491Z,15.30
2023-04-16T13:21:18.963Z,15.15
2023-04-16T13:23:48.944Z,15.19
2023-04-16T13:26:17.805Z,14.57
2023-04-16T13:28:45.265Z,14.43
2023-04-16T13:31:12.967Z,14.39
2023-04-16T13:33:40.742Z,14.50
2023-04-16T13:36:08.321Z,14.68
2023-04-16T13:38:35.876Z,14.78
2023-04-16T13:41:03.334Z,14.78
2023-04-16T13:43:32.107Z,14.80
2023-04-16T13:46:00.849Z,14.84
2023-04-16T13:48:29.236Z,14.78
2023-04-16T13:50:56.893Z,14.55
2023-04-16T13:53:24.336Z,14.83
2023-04-16T13:55:51.842Z,14.81
2023-04-16T13:58:19.334Z,14.73
2023-04-16T14:00:48.224Z,14.63
2023-04-16T14:03:15.838Z,14.65
2023-04-16T14:05:43.723Z,14.57
2023-04-16T14:08:12.903Z,14.67
2023-04-16T14:10:40.570Z,14.02
2023-04-16T14:13:08.094Z,14.09
2023-04-16T14:15:35.991Z,14.42
2023-04-16T14:18:05.172Z,14.56
2023-04-16T14:20:32.968Z,14.49
2023-04-16T14:23:00.423Z,14.62
2023-04-16T14:25:27.986Z,14.53
2023-04-16T14:27:55.974Z,14.56
2023-04-16T14:30:23.498Z,14.74
2023-04-16T14:32:51.069Z,14.82
2023-04-16T14:35:20.268Z,14.86
2023-04-16T14:37:47.831Z,14.92
2023-04-16T14:40:15.351Z,15.07
2023-04-16T14:42:42.840Z,15.01
2023-04-16T14:45:11.012Z,14.61
2023-04-16T14:47:45.404Z,14.91
2023-04-16T14:50:14.670Z,14.78
2023-04-16T14:52:43.512Z,14.47
2023-04-16T14:55:10.992Z,14.66
2023-04-16T14:57:38.947Z,14.80
2023-04-16T15:00:09.679Z,14.35
2023-04-16T15:02:37.694Z,14.45
2023-04-16T15:05:07.711Z,14.38
2023-04-16T15:07:35.147Z,14.22
2023-04-16T15:10:04.823Z,14.47
2023-04-16T15:12:32.372Z,14.71
2023-04-16T15:15:00.333Z,14.89
2023-04-16T15:17:27.960Z,14.60
2023-04-16T15:19:55.531Z,14.71
2023-04-16T15:22:23.105Z,14.74
2023-04-16T15:24:50.660Z,14.87
2023-04-16T15:27:20.418Z,14.82
2023-04-16T15:29:49.303Z,14.57
2023-04-16T15:32:16.774Z,14.66
2023-04-16T15:34:44.399Z,14.54
2023-04-16T15:37:11.855Z,14.70
2023-04-16T15:39:39.500Z,14.80
2023-04-16T15:42:07.691Z,14.72
2023-04-16T15:44:36.532Z,14.78
2023-04-16T15:47:06.143Z,14.79
2023-04-16T15:49:33.635Z,14.67
2023-04-16T15:52:01.438Z,14.47
2023-04-16T15:54:30.133Z,14.77
2023-04-16T15:56:58.550Z,14.57
2023-04-16T15:59:26.159Z,14.99
2023-04-16T16:01:55.094Z,14.85
2023-04-16T16:04:23.338Z,15.11
2023-04-16T16:06:51.628Z,15.09
2023-04-16T16:09:25.412Z,15.14
2023-04-16T16:11:54.019Z,15.17
2023-04-16T16:14:21.820Z,15.22
2023-04-16T16:16:49.560Z,15.17
2023-04-16T16:19:18.638Z,14.94
2023-04-16T16:21:46.130Z,14.91
2023-04-16T16:24:13.800Z,14.97
2023-04-16T16:26:41.372Z,14.92
2023-04-16T16:29:09.110Z,14.85
2023-04-16T16:31:36.721Z,14.98
2023-04-16T16:34:04.320Z,15.02
2023-04-16T16:36:36.516Z,15.10
2023-04-16T16:39:04.677Z,14.92
2023-04-16T16:41:32.245Z,14.76
2023-04-16T16:43:59.704Z,14.66
2023-04-16T16:46:27.171Z,14.72
2023-04-16T16:48:54.698Z,14.67
2023-04-16T16:51:22.173Z,14.78
2023-04-16T16:53:50.954Z,14.61
2023-04-16T16:56:18.385Z,14.61
2023-04-16T16:58:46.260Z,14.51
2023-04-16T17:01:13.736Z,14.56
2023-04-16T17:03:42.095Z,14.59
2023-04-16T17:06:09.751Z,14.62
2023-04-16T17:08:37.210Z,14.70
2023-04-16T17:11:06.105Z,14.55
2023-04-16T17:13:34.365Z,14.37
2023-04-16T17:16:01.808Z,14.29
2023-04-16T17:18:29.316Z,14.39
2023-04-16T17:20:56.806Z,14.26
2023-04-16T17:23:24.335Z,14.33
2023-04-16T17:25:51.811Z,14.07
2023-04-16T17:28:21.357Z,14.08
2023-04-16T17:30:52.374Z,14.19
2023-04-16T17:33:20.391Z,14.26
2023-04-16T17:35:47.972Z,14.13
2023-04-16T17:38:15.492Z,14.09
2023-04-16T17:40:42.996Z,14.12
2023-04-16T17:43:10.515Z,14.11
2023-04-16T17:45:39.374Z,14.03
2023-04-16T17:48:07.304Z,13.94
2023-04-16T17:50:36.029Z,13.99
2023-04-16T17:53:04.532Z,13.91
2023-04-16T17:55:32.266Z,13.88
2023-04-16T17:58:00.282Z,13.88
2023-04-16T18:00:27.755Z,13.94
2023-04-16T18:02:58.277Z,13.86
2023-04-16T18:05:26.256Z,13.73
2023-04-16T18:07:55.260Z,13.74
2023-04-16T18:10:22.974Z,13.71
2023-04-16T18:12:50.618Z,13.66
2023-04-16T18:15:18.369Z,13.53
2023-04-16T18:17:46.060Z,13.52
2023-04-16T18:20:16.772Z,13.57
2023-04-16T18:22:44.231Z,13.54
2023-04-16T18:25:12.142Z,13.44
2023-04-16T18:27:39.686Z,13.41
2023-04-16T18:30:09.917Z,13.40
2023-04-16T18:33:04.191Z,13.40
2023-04-16T18:35:35.294Z,13.38
2023-04-16T18:38:02.764Z,13.33
2023-04-16T18:40:30.327Z,13.35
2023-04-16T18:42:57.820Z,13.43
2023-04-16T18:45:28.148Z,13.49
2023-04-16T18:47:58.486Z,13.48
2023-04-16T18:50:26.013Z,13.35
2023-04-16T18:52:54.821Z,13.40
2023-04-16T18:55:22.296Z,13.48
2023-04-16T18:57:49.913Z,13.34
2023-04-16T19:00:18.181Z,13.06
2023-04-16T19:02:45.801Z,13.02
2023-04-16T19:05:13.402Z,13.05
2023-04-16T19:07:41.669Z,13.13
2023-04-16T19:10:11.292Z,13.28
2023-04-16T19:12:38.851Z,13.31
2023-04-16T19:15:07.104Z,12.96
2023-04-16T19:17:34.607Z,13.09
2023-04-16T19:20:02.200Z,13.19
2023-04-16T19:22:29.698Z,13.16
2023-04-16T19:24:57.191Z,13.14
2023-04-16T19:27:26.117Z,13.22
2023-04-16T19:29:53.585Z,13.21
2023-04-16T19:32:21.080Z,13.17
2023-04-16T19:34:48.614Z,13.25
2023-04-16T19:37:16.226Z,13.16
2023-04-16T19:39:43.722Z,13.11
2023-04-16T19:42:11.193Z,13.06
2023-04-16T19:44:39.991Z,12.98
2023-04-16T19:47:07.489Z,13.07
2023-04-16T19:49:35.008Z,13.11
2023-04-16T19:52:02.601Z,13.11
2023-04-16T19:54:33.418Z,13.05
2023-04-16T19:57:01.505Z,13.07
2023-04-16T19:59:29.009Z,12.84
2023-04-16T20:01:57.851Z,12.87
2023-04-16T20:04:25.375Z,12.58
2023-04-16T20:06:53.531Z,12.63
2023-04-16T20:09:21.217Z,12.69
2023-04-16T20:11:48.677Z,12.78
2023-04-16T20:14:16.520Z,12.78
2023-04-16T20:16:44.513Z,12.77
2023-04-16T20:19:17.063Z,12.69
2023-04-16T20:21:45.406Z,12.54
2023-04-16T20:24:12.906Z,12.62
2023-04-16T20:26:40.449Z,12.39
2023-04-16T20:29:08.112Z,12.39
2023-04-16T20:31:35.632Z,12.22
2023-04-16T20:34:03.689Z,12.33
2023-04-16T20:36:32.584Z,12.28
2023-04-16T20:39:01.999Z,12.24
2023-04-16T20:41:30.083Z,12.28
2023-04-16T20:43:57.542Z,12.30
2023-04-16T20:46:25.030Z,12.14
2023-04-16T20:48:52.615Z,12.14
2023-04-16T20:51:21.423Z,12.18
2023-04-16T20:53:52.005Z,12.16
2023-04-16T20:56:19.550Z,12.10
2023-04-16T20:58:47.013Z,12.15
2023-04-16T21:01:14.611Z,12.10
2023-04-16T21:03:42.205Z,12.09
2023-04-16T21:06:12.580Z,12.16
2023-04-16T21:08:40.019Z,12.14
2023-04-16T21:11:08.863Z,12.13
2023-04-16T21:13:36.332Z,12.06
2023-04-16T21:16:04.821Z,12.12
2023-04-16T21:18:32.395Z,12.07
2023-04-16T21:20:59.987Z,12.15
2023-04-16T21:23:27.552Z,12.09
2023-04-16T21:25:56.188Z,12.18
2023-04-16T21:28:25.014Z,12.14
2023-04-16T21:30:52.528Z,12.12
2023-04-16T21:33:20.312Z,12.06
2023-04-16T21:35:51.992Z,12.00
2023-04-16T21:38:19.556Z,12.03
2023-04-16T21:40:50.370Z,12.04
2023-04-16T21:43:17.842Z,11.91
2023-04-16T21:45:46.765Z,11.98
2023-04-16T21:48:14.530Z,12.17
2023-04-16T21:50:41.948Z,12.11
2023-04-16T21:53:09.764Z,12.11
2023-04-16T21:55:38.970Z,12.10
2023-04-16T21:58:06.390Z,12.09
2023-04-16T22:00:34.095Z,12.12
2023-04-16T22:03:04.153Z,12.15
2023-04-16T22:05:33.133Z,12.09
2023-04-16T22:08:04.010Z,12.12
2023-04-16T22:10:39.245Z,12.07
2023-04-16T22:13:12.527Z,12.14
2023-04-16T22:15:40.478Z,12.01
2023-04-16T22:18:09.551Z,11.88
2023-04-16T22:20:39.731Z,11.90
2023-04-16T22:23:07.323Z,11.91
2023-04-16T22:25:34.800Z,11.90
2023-04-16T22:28:02.290Z,11.92
2023-04-16T22:30:29.727Z,11.78
2023-04-16T22:32:57.655Z,11.85
2023-04-16T22:35:26.478Z,11.87
2023-04-16T22:37:53.916Z,11.83
2023-04-16T22:40:21.429Z,11.90
2023-04-16T22:42:50.113Z,11.87
2023-04-16T22:45:17.710Z,11.85
2023-04-16T22:47:45.243Z,11.81
2023-04-16T22:50:12.972Z,11.81
2023-04-16T22:52:41.826Z,11.88
2023-04-16T22:55:09.933Z,11.83
2023-04-16T22:57:37.398Z,11.87
2023-04-16T23:00:09.546Z,11.80
2023-04-16T23:02:37.114Z,11.82
2023-04-16T23:05:04.989Z,11.88
2023-04-16T23:07:32.427Z,11.78
2023-04-16T23:10:01.264Z,11.74
2023-04-16T23:12:28.719Z,11.63
2023-04-16T23:14:56.312Z,11.70
2023-04-16T23:17:23.995Z,11.63
2023-04-16T23:19:51.428Z,11.64
2023-04-16T23:22:18.873Z,11.63
2023-04-16T23:24:46.306Z,11.83
2023-04-16T23:27:15.421Z,11.87
2023-04-16T23:29:42.870Z,11.66
2023-04-16T23:32:10.299Z,11.42
2023-04-16T23:34:37.745Z,11.55
2023-04-16T23:37:05.214Z,11.52
2023-04-16T23:39:32.636Z,11.60
2023-04-16T23:42:00.469Z,11.41
2023-04-16T23:44:29.375Z,11.31
2023-04-16T23:46:57.244Z,11.56
2023-04-16T23:49:25.317Z,11.54
2023-04-16T23:51:52.982Z,11.58
2023-04-16T23:54:21.302Z,11.40
2023-04-16T23:56:49.187Z,11.22
2023-04-16T23:59:16.827Z,11.37
